createdAt,value
2018-03-31T00:00:02.559Z,8.4
2018-03-31T00:00:06.658Z,8.37
2018-03-31T00:00:10.547Z,8.37
2018-03-31T00:00:14.537Z,8.4
2018-03-31T00:00:18.421Z,8.37
2018-03-31T00:00:22.519Z,8.43
2018-03-31T00:00:26.405Z,8.39
2018-03-31T00:00:30.507Z,8.4
2018-03-31T00:00:34.504Z,8.32
2018-03-31T00:00:38.499Z,8.37
2018-03-31T00:00:42.385Z,8.37
2018-03-31T00:00:46.381Z,8.32
2018-03-31T00:00:50.600Z,8.36
2018-03-31T00:00:54.820Z,8.34
2018-03-31T00:00:59.148Z,8.27
2018-03-31T00:01:03.450Z,8.36
2018-03-31T00:01:07.670Z,8.36
2018-03-31T00:01:11.551Z,8.28
2018-03-31T00:01:15.775Z,8.27
2018-03-31T00:01:19.770Z,8.29
2018-03-31T00:01:24.091Z,8.28
2018-03-31T00:01:28.193Z,8.25
2018-03-31T00:01:32.295Z,8.25
2018-03-31T00:01:36.399Z,8.28
2018-03-31T00:01:40.603Z,8.27
2018-03-31T00:01:44.594Z,8.37
2018-03-31T00:01:48.479Z,8.27
2018-03-31T00:01:52.476Z,8.28
2018-03-31T00:01:56.683Z,8.32
2018-03-31T00:02:00.675Z,8.28
2018-03-31T00:02:04.673Z,8.36
2018-03-31T00:02:08.774Z,8.29
2018-03-31T00:02:12.884Z,8.36
2018-03-31T00:02:16.990Z,8.28
2018-03-31T00:02:21.099Z,8.32
2018-03-31T00:02:24.873Z,8.37
2018-03-31T00:02:28.879Z,8.31
2018-03-31T00:02:32.991Z,8.32
2018-03-31T00:02:36.984Z,8.28
2018-03-31T00:02:41.088Z,8.36
2018-03-31T00:02:44.970Z,8.25
2018-03-31T00:02:49.186Z,8.34
2018-03-31T00:02:53.176Z,8.31
2018-03-31T00:02:57.169Z,8.28
2018-03-31T00:03:00.952Z,8.24
2018-03-31T00:03:05.091Z,8.32
2018-03-31T00:03:08.991Z,8.34
2018-03-31T00:03:13.248Z,8.34
2018-03-31T00:03:17.243Z,8.31
2018-03-31T00:03:21.016Z,8.34
2018-03-31T00:03:25.337Z,8.25
2018-03-31T00:03:29.434Z,8.29
2018-03-31T00:03:33.322Z,8.28
2018-03-31T00:03:37.210Z,8.34
2018-03-31T00:03:41.541Z,8.22
2018-03-31T00:03:45.537Z,8.32
2018-03-31T00:03:49.522Z,8.31
2018-03-31T00:03:53.516Z,8.31
2018-03-31T00:03:57.503Z,8.32
2018-03-31T00:04:01.868Z,8.28
2018-03-31T00:04:05.877Z,8.31
2018-03-31T00:04:09.759Z,8.27
2018-03-31T00:04:13.869Z,8.31
2018-03-31T00:04:18.083Z,8.25
2018-03-31T00:04:22.185Z,8.34
2018-03-31T00:04:26.182Z,8.24
2018-03-31T00:04:30.175Z,8.31
2018-03-31T00:04:34.278Z,8.28
2018-03-31T00:04:38.280Z,8.28
2018-03-31T00:04:42.385Z,8.27
2018-03-31T00:04:46.374Z,8.32
2018-03-31T00:04:50.471Z,8.29
2018-03-31T00:04:54.244Z,8.28
2018-03-31T00:04:58.343Z,8.21
2018-03-31T00:05:02.326Z,8.22
2018-03-31T00:05:06.209Z,8.28
2018-03-31T00:05:10.097Z,8.34
2018-03-31T00:05:14.193Z,8.28
2018-03-31T00:05:18.419Z,8.27
2018-03-31T00:05:22.625Z,8.27
2018-03-31T00:05:26.730Z,8.32
2018-03-31T00:05:31.065Z,8.28
2018-03-31T00:05:34.953Z,8.25
2018-03-31T00:05:39.166Z,8.27
2018-03-31T00:05:43.374Z,8.22
2018-03-31T00:05:47.375Z,8.24
2018-03-31T00:05:51.263Z,8.34
2018-03-31T00:05:55.254Z,8.32
2018-03-31T00:05:59.459Z,8.25
2018-03-31T00:06:03.455Z,8.27
2018-03-31T00:06:07.555Z,8.25
2018-03-31T00:06:11.551Z,8.25
2018-03-31T00:06:15.660Z,8.22
2018-03-31T00:06:19.594Z,8.29
2018-03-31T00:06:23.693Z,8.29
2018-03-31T00:06:27.683Z,8.24
2018-03-31T00:06:31.674Z,8.25
2018-03-31T00:06:35.667Z,8.22
2018-03-31T00:06:39.765Z,8.18
2018-03-31T00:06:44.019Z,8.18
2018-03-31T00:06:48.016Z,8.29
2018-03-31T00:06:51.901Z,8.24
2018-03-31T00:06:56.222Z,8.31
2018-03-31T00:07:00.003Z,8.25
2018-03-31T00:07:04.102Z,8.21
2018-03-31T00:07:08.311Z,8.27
2018-03-31T00:07:12.088Z,8.17
2018-03-31T00:07:15.974Z,8.24
2018-03-31T00:07:20.088Z,8.21
2018-03-31T00:07:24.406Z,8.25
2018-03-31T00:07:28.402Z,8.27
2018-03-31T00:07:32.281Z,8.22
2018-03-31T00:07:36.605Z,8.24
2018-03-31T00:07:40.708Z,8.24
2018-03-31T00:07:44.709Z,8.22
2018-03-31T00:07:48.813Z,8.24
2018-03-31T00:07:52.802Z,8.24
2018-03-31T00:07:56.691Z,8.24
2018-03-31T00:08:00.904Z,8.18
2018-03-31T00:08:05.198Z,8.27
2018-03-31T00:08:09.311Z,8.22
2018-03-31T00:08:13.421Z,8.2
2018-03-31T00:08:17.526Z,8.21
2018-03-31T00:08:21.411Z,8.2
2018-03-31T00:08:25.295Z,8.31
2018-03-31T00:08:29.406Z,8.24
2018-03-31T00:08:33.613Z,8.2
2018-03-31T00:08:37.824Z,8.2
2018-03-31T00:08:41.940Z,8.13
2018-03-31T00:08:46.168Z,8.21
2018-03-31T00:08:50.161Z,8.25
2018-03-31T00:08:54.154Z,8.14
2018-03-31T00:08:58.147Z,8.14
2018-03-31T00:09:02.396Z,8.2
2018-03-31T00:09:06.608Z,8.2
2018-03-31T00:09:10.720Z,8.17
2018-03-31T00:09:14.951Z,8.13
2018-03-31T00:09:19.165Z,8.1
2018-03-31T00:09:23.181Z,8.21
2018-03-31T00:09:27.065Z,8.09
2018-03-31T00:09:31.164Z,8.09
2018-03-31T00:09:35.374Z,8.13
2018-03-31T00:09:39.515Z,8.17
2018-03-31T00:09:43.397Z,8.1
2018-03-31T00:09:47.391Z,8.1
2018-03-31T00:09:51.611Z,8.12
2018-03-31T00:09:55.391Z,8.18
2018-03-31T00:09:59.390Z,8.13
2018-03-31T00:10:03.637Z,8.09
2018-03-31T00:10:07.741Z,8.09
2018-03-31T00:10:11.633Z,8.14
2018-03-31T00:10:15.732Z,8.06
2018-03-31T00:10:19.944Z,8.12
2018-03-31T00:10:24.070Z,8.07
2018-03-31T00:10:28.110Z,8.12
2018-03-31T00:10:32.210Z,8.04
2018-03-31T00:10:36.420Z,8.07
2018-03-31T00:10:40.409Z,8.09
2018-03-31T00:10:44.414Z,8.1
2018-03-31T00:10:48.409Z,8.07
2018-03-31T00:10:52.507Z,8.07
2018-03-31T00:10:56.715Z,8.06
2018-03-31T00:11:01.038Z,8.06
2018-03-31T00:11:05.237Z,8.03
2018-03-31T00:11:09.232Z,8.04
2018-03-31T00:11:13.222Z,8.04
2018-03-31T00:11:17.216Z,7.95
2018-03-31T00:11:21.103Z,8
2018-03-31T00:11:25.219Z,8.06
2018-03-31T00:11:29.424Z,8.04
2018-03-31T00:11:33.534Z,8.06
2018-03-31T00:11:37.532Z,8
2018-03-31T00:11:41.737Z,8
2018-03-31T00:11:46.002Z,7.91
2018-03-31T00:11:50.104Z,7.96
2018-03-31T00:11:54.310Z,8.02
2018-03-31T00:11:58.410Z,7.92
2018-03-31T00:12:02.513Z,7.99
2018-03-31T00:12:06.504Z,7.94
2018-03-31T00:12:10.493Z,8.07
2018-03-31T00:12:14.488Z,7.92
2018-03-31T00:12:18.589Z,7.95
2018-03-31T00:12:22.689Z,7.94
2018-03-31T00:12:26.578Z,7.96
2018-03-31T00:12:30.573Z,7.91
2018-03-31T00:12:34.675Z,7.92
2018-03-31T00:12:38.883Z,7.91
2018-03-31T00:12:42.989Z,7.89
2018-03-31T00:12:47.199Z,7.89
2018-03-31T00:12:51.194Z,7.89
2018-03-31T00:12:55.197Z,7.89
2018-03-31T00:12:59.196Z,7.86
2018-03-31T00:13:03.544Z,7.88
2018-03-31T00:13:07.426Z,7.88
2018-03-31T00:13:11.527Z,7.88
2018-03-31T00:13:15.650Z,7.88
2018-03-31T00:13:19.749Z,7.95
2018-03-31T00:13:23.845Z,7.81
2018-03-31T00:13:27.730Z,7.92
2018-03-31T00:13:31.612Z,7.85
2018-03-31T00:13:35.708Z,7.79
2018-03-31T00:13:39.702Z,7.79
2018-03-31T00:13:43.690Z,7.81
2018-03-31T00:13:47.681Z,7.84
2018-03-31T00:13:51.781Z,7.81
2018-03-31T00:13:55.662Z,7.82
2018-03-31T00:13:59.552Z,7.79
2018-03-31T00:14:03.709Z,7.82
2018-03-31T00:14:07.810Z,7.88
2018-03-31T00:14:11.802Z,7.85
2018-03-31T00:14:15.913Z,7.82
2018-03-31T00:14:20.009Z,7.82
2018-03-31T00:14:24.010Z,7.85
2018-03-31T00:14:28.119Z,7.81
2018-03-31T00:14:32.331Z,7.82
2018-03-31T00:14:36.443Z,7.82
2018-03-31T00:14:40.647Z,7.76
2018-03-31T00:14:44.745Z,7.84
2018-03-31T00:14:48.842Z,7.79
2018-03-31T00:14:52.951Z,7.79
2018-03-31T00:14:57.266Z,7.77
2018-03-31T00:15:01.157Z,7.74
2018-03-31T00:15:05.571Z,7.74
2018-03-31T00:15:09.673Z,7.85
2018-03-31T00:15:13.661Z,7.79
2018-03-31T00:15:17.763Z,7.79
2018-03-31T00:15:21.858Z,7.7
2018-03-31T00:15:25.851Z,7.77
2018-03-31T00:15:29.954Z,7.79
2018-03-31T00:15:33.948Z,7.67
2018-03-31T00:15:38.049Z,7.82
2018-03-31T00:15:42.268Z,7.7
2018-03-31T00:15:46.151Z,7.77
2018-03-31T00:15:50.144Z,7.77
2018-03-31T00:15:54.348Z,7.71
2018-03-31T00:15:58.445Z,7.74
2018-03-31T00:16:02.586Z,7.67
2018-03-31T00:16:06.478Z,7.7
2018-03-31T00:16:10.471Z,7.74
2018-03-31T00:16:14.466Z,7.76
2018-03-31T00:16:18.565Z,7.71
2018-03-31T00:16:22.340Z,7.73
2018-03-31T00:16:26.454Z,7.7
2018-03-31T00:16:30.674Z,7.71
2018-03-31T00:16:34.783Z,7.67
2018-03-31T00:16:38.778Z,7.66
2018-03-31T00:16:42.987Z,7.62
2018-03-31T00:16:47.195Z,7.63
2018-03-31T00:16:51.303Z,7.71
2018-03-31T00:16:55.184Z,7.63
2018-03-31T00:16:59.177Z,7.58
2018-03-31T00:17:03.268Z,7.66
2018-03-31T00:17:07.267Z,7.63
2018-03-31T00:17:11.259Z,7.67
2018-03-31T00:17:15.469Z,7.57
2018-03-31T00:17:19.460Z,7.63
2018-03-31T00:17:23.733Z,7.55
2018-03-31T00:17:27.835Z,7.62
2018-03-31T00:17:31.932Z,7.58
2018-03-31T00:17:36.194Z,7.69
2018-03-31T00:17:40.183Z,7.54
2018-03-31T00:17:44.077Z,7.63
2018-03-31T00:17:48.195Z,7.66
2018-03-31T00:17:52.307Z,7.66
2018-03-31T00:17:56.304Z,7.66
2018-03-31T00:18:00.201Z,7.63
2018-03-31T00:18:04.202Z,7.63
2018-03-31T00:18:08.425Z,7.67
2018-03-31T00:18:12.422Z,7.55
2018-03-31T00:18:16.307Z,7.58
2018-03-31T00:18:20.408Z,7.63
2018-03-31T00:18:24.628Z,7.6
2018-03-31T00:18:28.732Z,7.58
2018-03-31T00:18:32.834Z,7.57
2018-03-31T00:18:36.823Z,7.58
2018-03-31T00:18:41.040Z,7.62
2018-03-31T00:18:45.037Z,7.63
2018-03-31T00:18:49.030Z,7.52
2018-03-31T00:18:53.126Z,7.54
2018-03-31T00:18:57.339Z,7.57
2018-03-31T00:19:01.436Z,7.51
2018-03-31T00:19:05.548Z,7.57
2018-03-31T00:19:09.776Z,7.55
2018-03-31T00:19:13.875Z,7.52
2018-03-31T00:19:17.860Z,7.52
2018-03-31T00:19:21.962Z,7.54
2018-03-31T00:19:25.958Z,7.52
2018-03-31T00:19:30.015Z,7.5
2018-03-31T00:19:34.010Z,7.57
2018-03-31T00:19:38.219Z,7.48
2018-03-31T00:19:42.388Z,7.58
2018-03-31T00:19:46.491Z,7.54
2018-03-31T00:19:50.703Z,7.51
2018-03-31T00:19:54.699Z,7.58
2018-03-31T00:19:58.593Z,7.58
2018-03-31T00:20:03.005Z,7.45
2018-03-31T00:20:06.889Z,7.57
2018-03-31T00:20:11.002Z,7.52
2018-03-31T00:20:15.211Z,7.48
2018-03-31T00:20:19.309Z,7.52
2018-03-31T00:20:23.310Z,7.54
2018-03-31T00:20:27.407Z,7.52
2018-03-31T00:20:31.616Z,7.58
2018-03-31T00:20:35.826Z,7.5
2018-03-31T00:20:39.820Z,7.52
2018-03-31T00:20:44.023Z,7.48
2018-03-31T00:20:48.016Z,7.5
2018-03-31T00:20:52.030Z,7.51
2018-03-31T00:20:56.136Z,7.44
2018-03-31T00:21:00.243Z,7.51
2018-03-31T00:21:04.237Z,7.47
2018-03-31T00:21:08.337Z,7.51
2018-03-31T00:21:12.226Z,7.44
2018-03-31T00:21:16.113Z,7.45
2018-03-31T00:21:20.327Z,7.51
2018-03-31T00:21:24.425Z,7.47
2018-03-31T00:21:28.740Z,7.48
2018-03-31T00:21:32.949Z,7.41
2018-03-31T00:21:37.046Z,7.57
2018-03-31T00:21:41.144Z,7.45
2018-03-31T00:21:45.036Z,7.45
2018-03-31T00:21:49.353Z,7.52
2018-03-31T00:21:53.456Z,7.52
2018-03-31T00:21:57.341Z,7.45
2018-03-31T00:22:01.339Z,7.55
2018-03-31T00:22:05.432Z,7.54
2018-03-31T00:22:09.546Z,7.52
2018-03-31T00:22:13.641Z,7.45
2018-03-31T00:22:17.958Z,7.54
2018-03-31T00:22:21.845Z,7.5
2018-03-31T00:22:25.842Z,7.51
2018-03-31T00:22:29.940Z,7.5
2018-03-31T00:22:33.933Z,7.48
2018-03-31T00:22:38.075Z,7.55
2018-03-31T00:22:42.181Z,7.54
2018-03-31T00:22:46.173Z,7.63
2018-03-31T00:22:50.386Z,7.48
2018-03-31T00:22:54.601Z,7.51
2018-03-31T00:22:58.867Z,7.45
2018-03-31T00:23:02.831Z,7.51
2018-03-31T00:23:07.048Z,7.48
2018-03-31T00:23:11.258Z,7.55
2018-03-31T00:23:15.255Z,7.54
2018-03-31T00:23:19.251Z,7.5
2018-03-31T00:23:23.148Z,7.5
2018-03-31T00:23:27.260Z,7.5
2018-03-31T00:23:31.360Z,7.55
2018-03-31T00:23:35.567Z,7.6
2018-03-31T00:23:39.666Z,7.51
2018-03-31T00:23:43.548Z,7.63
2018-03-31T00:23:47.647Z,7.57
2018-03-31T00:23:51.529Z,7.52
2018-03-31T00:23:55.425Z,7.54
2018-03-31T00:23:59.419Z,7.5
2018-03-31T00:24:03.879Z,7.51
2018-03-31T00:24:07.878Z,7.51
2018-03-31T00:24:12.115Z,7.51
2018-03-31T00:24:16.232Z,7.54
2018-03-31T00:24:20.221Z,7.5
2018-03-31T00:24:24.318Z,7.47
2018-03-31T00:24:28.311Z,7.51
2018-03-31T00:24:32.414Z,7.54
2018-03-31T00:24:36.726Z,7.55
2018-03-31T00:24:40.942Z,7.54
2018-03-31T00:24:45.155Z,7.47
2018-03-31T00:24:49.038Z,7.55
2018-03-31T00:24:53.038Z,7.57
2018-03-31T00:24:57.031Z,7.47
2018-03-31T00:25:01.150Z,7.58
2018-03-31T00:25:05.241Z,7.58
2018-03-31T00:25:09.230Z,7.58
2018-03-31T00:25:13.116Z,7.6
2018-03-31T00:25:17.217Z,7.63
2018-03-31T00:25:21.427Z,7.62
2018-03-31T00:25:25.535Z,7.55
2018-03-31T00:25:29.735Z,7.6
2018-03-31T00:25:33.741Z,7.63
2018-03-31T00:25:37.625Z,7.55
2018-03-31T00:25:41.725Z,7.55
2018-03-31T00:25:45.721Z,7.58
2018-03-31T00:25:49.607Z,7.6
2018-03-31T00:25:53.707Z,7.63
2018-03-31T00:25:57.705Z,7.63
2018-03-31T00:26:01.592Z,7.6
2018-03-31T00:26:05.597Z,7.58
2018-03-31T00:26:09.590Z,7.63
2018-03-31T00:26:13.795Z,7.66
2018-03-31T00:26:17.891Z,7.6
2018-03-31T00:26:21.779Z,7.55
2018-03-31T00:26:25.769Z,7.58
2018-03-31T00:26:29.867Z,7.58
2018-03-31T00:26:33.969Z,7.6
2018-03-31T00:26:37.959Z,7.6
2018-03-31T00:26:41.963Z,7.6
2018-03-31T00:26:46.185Z,7.67
2018-03-31T00:26:50.282Z,7.63
2018-03-31T00:26:54.382Z,7.66
2018-03-31T00:26:58.482Z,7.57
2018-03-31T00:27:02.474Z,7.63
2018-03-31T00:27:06.375Z,7.58
2018-03-31T00:27:10.488Z,7.67
2018-03-31T00:27:14.702Z,7.66
2018-03-31T00:27:18.697Z,7.6
2018-03-31T00:27:22.803Z,7.6
2018-03-31T00:27:27.017Z,7.63
2018-03-31T00:27:31.229Z,7.58
2018-03-31T00:27:35.403Z,7.66
2018-03-31T00:27:39.399Z,7.57
2018-03-31T00:27:43.401Z,7.63
2018-03-31T00:27:47.618Z,7.69
2018-03-31T00:27:51.607Z,7.63
2018-03-31T00:27:55.723Z,7.57
2018-03-31T00:27:59.819Z,7.62
2018-03-31T00:28:03.960Z,7.57
2018-03-31T00:28:07.960Z,7.7
2018-03-31T00:28:12.177Z,7.62
2018-03-31T00:28:16.277Z,7.57
2018-03-31T00:28:20.269Z,7.58
2018-03-31T00:28:24.489Z,7.6
2018-03-31T00:28:28.700Z,7.76
2018-03-31T00:28:32.803Z,7.6
2018-03-31T00:28:36.907Z,7.73
2018-03-31T00:28:40.790Z,7.74
2018-03-31T00:28:44.999Z,7.76
2018-03-31T00:28:48.990Z,7.57
2018-03-31T00:28:53.097Z,7.6
2018-03-31T00:28:57.153Z,7.73
2018-03-31T00:29:01.258Z,7.62
2018-03-31T00:29:05.402Z,7.66
2018-03-31T00:29:09.613Z,7.6
2018-03-31T00:29:13.712Z,7.58
2018-03-31T00:29:17.922Z,7.57
2018-03-31T00:29:21.923Z,7.66
2018-03-31T00:29:25.913Z,7.63
2018-03-31T00:29:29.794Z,7.62
2018-03-31T00:29:33.890Z,7.79
2018-03-31T00:29:38.097Z,7.7
2018-03-31T00:29:41.873Z,7.76
2018-03-31T00:29:46.077Z,7.74
2018-03-31T00:29:50.178Z,7.79
2018-03-31T00:29:54.171Z,7.73
2018-03-31T00:29:58.381Z,7.71
2018-03-31T00:30:02.385Z,7.6
2018-03-31T00:30:06.391Z,7.7
2018-03-31T00:30:10.392Z,7.74
2018-03-31T00:30:14.604Z,7.7
2018-03-31T00:30:18.485Z,7.73
2018-03-31T00:30:22.588Z,7.74
2018-03-31T00:30:26.814Z,7.71
2018-03-31T00:30:30.820Z,7.76
2018-03-31T00:30:34.921Z,7.73
2018-03-31T00:30:39.132Z,7.73
2018-03-31T00:30:43.338Z,7.73
2018-03-31T00:30:47.440Z,7.81
2018-03-31T00:30:51.435Z,7.82
2018-03-31T00:30:55.212Z,7.82
2018-03-31T00:30:59.213Z,7.74
2018-03-31T00:31:03.252Z,7.71
2018-03-31T00:31:07.143Z,7.73
2018-03-31T00:31:11.246Z,7.82
2018-03-31T00:31:15.561Z,7.79
2018-03-31T00:31:19.340Z,7.79
2018-03-31T00:31:23.438Z,7.76
2018-03-31T00:31:27.652Z,7.81
2018-03-31T00:31:31.751Z,7.82
2018-03-31T00:31:35.748Z,7.81
2018-03-31T00:31:39.956Z,7.79
2018-03-31T00:31:43.954Z,7.79
2018-03-31T00:31:48.065Z,7.82
2018-03-31T00:31:52.272Z,7.79
2018-03-31T00:31:56.263Z,7.76
2018-03-31T00:32:00.255Z,7.84
2018-03-31T00:32:04.136Z,7.79
2018-03-31T00:32:08.246Z,7.79
2018-03-31T00:32:12.342Z,7.77
2018-03-31T00:32:16.451Z,7.66
2018-03-31T00:32:20.340Z,7.82
2018-03-31T00:32:24.551Z,7.82
2018-03-31T00:32:28.760Z,7.82
2018-03-31T00:32:32.864Z,7.79
2018-03-31T00:32:36.976Z,7.77
2018-03-31T00:32:41.180Z,7.79
2018-03-31T00:32:45.281Z,7.79
2018-03-31T00:32:49.667Z,7.85
2018-03-31T00:32:53.673Z,7.73
2018-03-31T00:32:57.774Z,7.76
2018-03-31T00:33:01.988Z,7.76
2018-03-31T00:33:06.005Z,7.71
2018-03-31T00:33:09.871Z,7.79
2018-03-31T00:33:13.755Z,7.76
2018-03-31T00:33:17.533Z,7.71
2018-03-31T00:33:21.314Z,7.79
2018-03-31T00:33:25.416Z,7.82
2018-03-31T00:33:29.408Z,7.76
2018-03-31T00:33:33.626Z,7.81
2018-03-31T00:33:37.618Z,7.79
2018-03-31T00:33:41.714Z,7.73
2018-03-31T00:33:45.918Z,7.79
2018-03-31T00:33:49.802Z,7.81
2018-03-31T00:33:53.791Z,7.81
2018-03-31T00:33:57.786Z,7.77
2018-03-31T00:34:01.893Z,7.74
2018-03-31T00:34:06.034Z,7.76
2018-03-31T00:34:10.243Z,7.82
2018-03-31T00:34:14.452Z,7.81
2018-03-31T00:34:18.444Z,7.81
2018-03-31T00:34:22.441Z,7.82
2018-03-31T00:34:26.324Z,7.81
2018-03-31T00:34:30.209Z,7.76
2018-03-31T00:34:34.092Z,7.82
2018-03-31T00:34:38.193Z,7.81
2018-03-31T00:34:42.194Z,7.82
2018-03-31T00:34:46.414Z,7.82
2018-03-31T00:34:50.523Z,7.79
2018-03-31T00:34:54.514Z,7.82
2018-03-31T00:34:58.723Z,7.79
2018-03-31T00:35:02.610Z,7.76
2018-03-31T00:35:06.711Z,7.84
2018-03-31T00:35:10.696Z,7.79
2018-03-31T00:35:14.808Z,7.77
2018-03-31T00:35:18.689Z,7.85
2018-03-31T00:35:22.581Z,7.84
2018-03-31T00:35:26.464Z,7.79
2018-03-31T00:35:30.674Z,7.85
2018-03-31T00:35:34.887Z,7.76
2018-03-31T00:35:39.113Z,7.85
2018-03-31T00:35:43.208Z,7.82
2018-03-31T00:35:47.197Z,7.82
2018-03-31T00:35:51.515Z,7.82
2018-03-31T00:35:55.506Z,7.81
2018-03-31T00:35:59.709Z,7.79
2018-03-31T00:36:03.849Z,7.84
2018-03-31T00:36:07.842Z,7.77
2018-03-31T00:36:12.174Z,7.82
2018-03-31T00:36:16.056Z,7.81
2018-03-31T00:36:20.260Z,7.85
2018-03-31T00:36:24.362Z,7.88
2018-03-31T00:36:28.460Z,7.82
2018-03-31T00:36:32.555Z,7.91
2018-03-31T00:36:36.770Z,7.77
2018-03-31T00:36:40.973Z,7.82
2018-03-31T00:36:45.074Z,7.82
2018-03-31T00:36:49.065Z,7.79
2018-03-31T00:36:53.396Z,7.82
2018-03-31T00:36:57.381Z,7.85
2018-03-31T00:37:01.480Z,7.82
2018-03-31T00:37:05.152Z,7.82
2018-03-31T00:37:09.146Z,7.79
2018-03-31T00:37:13.362Z,7.86
2018-03-31T00:37:17.244Z,7.82
2018-03-31T00:37:21.453Z,7.79
2018-03-31T00:37:25.561Z,7.79
2018-03-31T00:37:29.876Z,7.82
2018-03-31T00:37:33.760Z,7.79
2018-03-31T00:37:37.973Z,7.77
2018-03-31T00:37:41.979Z,7.81
2018-03-31T00:37:45.980Z,7.88
2018-03-31T00:37:50.293Z,7.79
2018-03-31T00:37:54.299Z,7.92
2018-03-31T00:37:58.395Z,7.79
2018-03-31T00:38:02.737Z,7.82
2018-03-31T00:38:06.733Z,7.81
2018-03-31T00:38:11.045Z,7.82
2018-03-31T00:38:15.147Z,7.79
2018-03-31T00:38:18.927Z,7.88
2018-03-31T00:38:22.921Z,7.92
2018-03-31T00:38:26.920Z,7.81
2018-03-31T00:38:31.017Z,7.79
2018-03-31T00:38:35.122Z,7.89
2018-03-31T00:38:39.115Z,7.91
2018-03-31T00:38:43.228Z,7.81
2018-03-31T00:38:47.114Z,7.76
2018-03-31T00:38:51.135Z,7.81
2018-03-31T00:38:55.718Z,7.82
2018-03-31T00:39:00.065Z,7.84
2018-03-31T00:39:04.572Z,7.86
2018-03-31T00:39:08.454Z,7.77
2018-03-31T00:39:12.336Z,7.91
2018-03-31T00:39:16.326Z,7.95
2018-03-31T00:39:20.434Z,7.94
2018-03-31T00:39:24.426Z,7.89
2018-03-31T00:39:28.313Z,7.88
2018-03-31T00:39:32.526Z,7.89
2018-03-31T00:39:36.851Z,7.86
2018-03-31T00:39:40.846Z,7.94
2018-03-31T00:39:44.626Z,7.82
2018-03-31T00:39:49.006Z,7.86
2018-03-31T00:39:53.005Z,7.88
2018-03-31T00:39:56.994Z,7.89
2018-03-31T00:40:01.092Z,7.84
2018-03-31T00:40:05.307Z,7.86
2018-03-31T00:40:09.402Z,7.91
2018-03-31T00:40:13.508Z,7.84
2018-03-31T00:40:17.496Z,7.86
2018-03-31T00:40:21.601Z,7.89
2018-03-31T00:40:25.814Z,7.95
2018-03-31T00:40:29.909Z,7.92
2018-03-31T00:40:33.959Z,7.88
2018-03-31T00:40:37.964Z,7.91
2018-03-31T00:40:42.276Z,7.91
2018-03-31T00:40:46.563Z,7.94
2018-03-31T00:40:50.447Z,7.89
2018-03-31T00:40:54.544Z,7.94
2018-03-31T00:40:58.598Z,7.89
2018-03-31T00:41:02.592Z,7.88
2018-03-31T00:41:06.480Z,7.91
2018-03-31T00:41:10.698Z,7.91
2018-03-31T00:41:14.473Z,7.88
2018-03-31T00:41:18.467Z,7.88
2018-03-31T00:41:22.566Z,7.94
2018-03-31T00:41:26.771Z,7.84
2018-03-31T00:41:30.868Z,7.94
2018-03-31T00:41:34.971Z,7.95
2018-03-31T00:41:39.073Z,7.91
2018-03-31T00:41:43.174Z,7.95
2018-03-31T00:41:47.275Z,7.89
2018-03-31T00:41:51.161Z,7.89
2018-03-31T00:41:55.044Z,7.94
2018-03-31T00:41:59.148Z,7.92
2018-03-31T00:42:03.381Z,7.94
2018-03-31T00:42:07.176Z,7.99
2018-03-31T00:42:11.166Z,7.96
2018-03-31T00:42:15.054Z,7.99
2018-03-31T00:42:18.944Z,7.94
2018-03-31T00:42:23.054Z,7.91
2018-03-31T00:42:27.265Z,7.91
2018-03-31T00:42:31.396Z,7.91
2018-03-31T00:42:35.389Z,7.95
2018-03-31T00:42:39.704Z,7.99
2018-03-31T00:42:43.586Z,7.86
2018-03-31T00:42:47.693Z,7.94
2018-03-31T00:42:51.690Z,7.94
2018-03-31T00:42:55.897Z,7.95
2018-03-31T00:42:59.885Z,7.94
2018-03-31T00:43:03.990Z,7.96
2018-03-31T00:43:07.981Z,7.94
2018-03-31T00:43:11.865Z,7.92
2018-03-31T00:43:16.084Z,7.99
2018-03-31T00:43:20.189Z,7.96
2018-03-31T00:43:24.181Z,7.94
2018-03-31T00:43:28.173Z,7.95
2018-03-31T00:43:32.283Z,7.95
2018-03-31T00:43:36.165Z,7.92
2018-03-31T00:43:40.369Z,7.96
2018-03-31T00:43:44.750Z,7.91
2018-03-31T00:43:48.742Z,8.02
2018-03-31T00:43:52.954Z,8.04
2018-03-31T00:43:57.163Z,8.06
2018-03-31T00:44:01.154Z,8
2018-03-31T00:44:05.446Z,8.04
2018-03-31T00:44:09.602Z,7.95
2018-03-31T00:44:13.701Z,7.99
2018-03-31T00:44:17.704Z,7.95
2018-03-31T00:44:21.908Z,8.04
2018-03-31T00:44:25.685Z,8.03
2018-03-31T00:44:29.785Z,8.04
2018-03-31T00:44:33.569Z,8.04
2018-03-31T00:44:37.781Z,8
2018-03-31T00:44:41.772Z,8.02
2018-03-31T00:44:45.772Z,7.89
2018-03-31T00:44:49.771Z,8.04
2018-03-31T00:44:53.977Z,8.06
2018-03-31T00:44:58.078Z,8
2018-03-31T00:45:02.196Z,8.02
2018-03-31T00:45:06.087Z,8.04
2018-03-31T00:45:10.295Z,8.02
2018-03-31T00:45:14.179Z,8.03
2018-03-31T00:45:18.278Z,7.99
2018-03-31T00:45:22.492Z,8.02
2018-03-31T00:45:26.380Z,8.03
2018-03-31T00:45:30.484Z,8.02
2018-03-31T00:45:34.491Z,7.95
2018-03-31T00:45:38.396Z,7.95
2018-03-31T00:45:42.501Z,8.03
2018-03-31T00:45:46.603Z,8.06
2018-03-31T00:45:50.487Z,7.94
2018-03-31T00:45:54.587Z,8.04
2018-03-31T00:45:58.575Z,7.94
2018-03-31T00:46:02.517Z,7.96
2018-03-31T00:46:06.631Z,8.06
2018-03-31T00:46:10.523Z,8
2018-03-31T00:46:14.401Z,7.92
2018-03-31T00:46:18.619Z,8.04
2018-03-31T00:46:22.505Z,7.92
2018-03-31T00:46:26.616Z,8
2018-03-31T00:46:30.842Z,8.02
2018-03-31T00:46:34.952Z,7.92
2018-03-31T00:46:39.181Z,7.96
2018-03-31T00:46:43.072Z,8.04
2018-03-31T00:46:47.173Z,8.06
2018-03-31T00:46:51.496Z,7.99
2018-03-31T00:46:55.707Z,7.94
2018-03-31T00:46:59.700Z,8.06
2018-03-31T00:47:03.699Z,8.06
2018-03-31T00:47:07.913Z,7.92
2018-03-31T00:47:12.235Z,7.89
2018-03-31T00:47:16.346Z,8.03
2018-03-31T00:47:20.232Z,8.07
2018-03-31T00:47:24.224Z,8.03
2018-03-31T00:47:28.224Z,8.06
2018-03-31T00:47:32.438Z,8.02
2018-03-31T00:47:36.537Z,8
2018-03-31T00:47:40.524Z,7.91
2018-03-31T00:47:44.516Z,8.03
2018-03-31T00:47:48.839Z,7.92
2018-03-31T00:47:52.833Z,8.04
2018-03-31T00:47:56.824Z,8.03
2018-03-31T00:48:00.922Z,8.03
2018-03-31T00:48:05.325Z,8.03
2018-03-31T00:48:09.320Z,8
2018-03-31T00:48:13.100Z,8.02
2018-03-31T00:48:17.200Z,8.03
2018-03-31T00:48:21.415Z,8.07
2018-03-31T00:48:25.520Z,7.95
2018-03-31T00:48:29.519Z,8.03
2018-03-31T00:48:33.726Z,8.03
2018-03-31T00:48:37.820Z,8.02
2018-03-31T00:48:42.146Z,8.02
2018-03-31T00:48:46.026Z,8
2018-03-31T00:48:49.914Z,8
2018-03-31T00:48:53.807Z,8.06
2018-03-31T00:48:57.973Z,8.03
2018-03-31T00:49:02.081Z,8.03
2018-03-31T00:49:06.084Z,8.04
2018-03-31T00:49:10.290Z,8
2018-03-31T00:49:14.284Z,8.03
2018-03-31T00:49:18.389Z,8.02
2018-03-31T00:49:22.600Z,8.03
2018-03-31T00:49:26.712Z,8
2018-03-31T00:49:30.828Z,7.94
2018-03-31T00:49:35.053Z,8
2018-03-31T00:49:39.306Z,8.03
2018-03-31T00:49:43.407Z,8.03
2018-03-31T00:49:47.514Z,8.06
2018-03-31T00:49:51.719Z,8
2018-03-31T00:49:55.717Z,8.04
2018-03-31T00:49:59.706Z,8.04
2018-03-31T00:50:03.696Z,8.04
2018-03-31T00:50:07.595Z,8.04
2018-03-31T00:50:11.588Z,8.06
2018-03-31T00:50:15.585Z,8.03
2018-03-31T00:50:19.579Z,8.04
2018-03-31T00:50:23.575Z,8.04
2018-03-31T00:50:27.468Z,8
2018-03-31T00:50:31.734Z,8.02
2018-03-31T00:50:35.836Z,8.02
2018-03-31T00:50:40.155Z,8.06
2018-03-31T00:50:44.265Z,8.03
2018-03-31T00:50:48.491Z,8
2018-03-31T00:50:52.601Z,8.06
2018-03-31T00:50:56.596Z,8.03
2018-03-31T00:51:00.485Z,8.03
2018-03-31T00:51:04.719Z,8.09
2018-03-31T00:51:08.716Z,8.04
2018-03-31T00:51:12.715Z,8
2018-03-31T00:51:16.601Z,8.04
2018-03-31T00:51:20.704Z,8.04
2018-03-31T00:51:24.908Z,8.06
2018-03-31T00:51:28.795Z,8.04
2018-03-31T00:51:33.008Z,8.04
2018-03-31T00:51:37.021Z,8.06
2018-03-31T00:51:41.236Z,8.03
2018-03-31T00:51:45.347Z,8.03
2018-03-31T00:51:49.567Z,8.06
2018-03-31T00:51:53.787Z,8
2018-03-31T00:51:57.882Z,8.09
2018-03-31T00:52:01.817Z,8.03
2018-03-31T00:52:05.810Z,8.03
2018-03-31T00:52:09.930Z,8.07
2018-03-31T00:52:14.040Z,8.1
2018-03-31T00:52:18.145Z,8.06
2018-03-31T00:52:22.369Z,8.07
2018-03-31T00:52:26.269Z,8.07
2018-03-31T00:52:30.376Z,8
2018-03-31T00:52:34.483Z,8.06
2018-03-31T00:52:38.369Z,8.06
2018-03-31T00:52:42.411Z,8.03
2018-03-31T00:52:46.521Z,8.07
2018-03-31T00:52:50.404Z,8.03
2018-03-31T00:52:54.505Z,8.07
2018-03-31T00:52:58.712Z,8.03
2018-03-31T00:53:02.767Z,8.07
2018-03-31T00:53:06.870Z,8.06
2018-03-31T00:53:10.976Z,8.07
2018-03-31T00:53:15.201Z,8.06
2018-03-31T00:53:19.087Z,8.04
2018-03-31T00:53:23.090Z,8.04
2018-03-31T00:53:27.080Z,7.99
2018-03-31T00:53:31.074Z,8.09
2018-03-31T00:53:35.066Z,8.02
2018-03-31T00:53:39.293Z,8.02
2018-03-31T00:53:43.283Z,8.06
2018-03-31T00:53:47.605Z,8.06
2018-03-31T00:53:51.598Z,8.03
2018-03-31T00:53:55.695Z,8.03
2018-03-31T00:53:59.911Z,8.06
2018-03-31T00:54:03.939Z,8.06
2018-03-31T00:54:07.934Z,8.06
2018-03-31T00:54:12.249Z,8
2018-03-31T00:54:16.242Z,8.04
2018-03-31T00:54:20.344Z,8.04
2018-03-31T00:54:24.339Z,8
2018-03-31T00:54:28.228Z,8.03